createdAt,value
2019-05-16T00:02:01.215Z,0.50
2019-05-16T00:04:30.682Z,0.50
2019-05-16T00:07:00.200Z,0.50
2019-05-16T00:09:29.735Z,0.50
2019-05-16T00:11:59.262Z,0.50
2019-05-16T00:14:28.782Z,0.70
2019-05-16T00:16:58.901Z,0.68
2019-05-16T00:19:28.877Z,0.80
2019-05-16T00:21:58.500Z,0.75
2019-05-16T00:24:29.264Z,0.70
2019-05-16T00:26:59.458Z,0.75
2019-05-16T00:29:28.997Z,0.60
2019-05-16T00:31:58.511Z,0.70
2019-05-16T00:34:28.101Z,0.60
2019-05-16T00:36:58.180Z,0.65
2019-05-16T00:39:28.150Z,0.50
2019-05-16T00:41:58.382Z,0.60
2019-05-16T00:44:28.249Z,0.70
2019-05-16T00:46:58.134Z,0.70
2019-05-16T00:49:28.149Z,0.57
2019-05-16T00:51:58.473Z,0.70
2019-05-16T00:54:28.293Z,0.55
2019-05-16T00:56:57.905Z,0.60
2019-05-16T00:59:27.702Z,0.90
2019-05-16T01:01:58.774Z,0.60
2019-05-16T01:04:28.887Z,0.62
2019-05-16T01:07:01.703Z,0.53
2019-05-16T01:09:29.814Z,0.70
2019-05-16T01:11:59.353Z,0.60
2019-05-16T01:14:28.899Z,0.62
2019-05-16T01:16:58.449Z,0.70
2019-05-16T01:19:27.978Z,0.70
2019-05-16T01:21:59.002Z,0.62
2019-05-16T01:24:29.203Z,0.80
2019-05-16T01:26:59.288Z,0.80
2019-05-16T01:29:28.804Z,0.60
2019-05-16T01:31:58.972Z,0.90
2019-05-16T01:34:28.768Z,0.80
2019-05-16T01:36:59.033Z,1.17
2019-05-16T01:39:28.878Z,0.70
2019-05-16T01:41:58.759Z,0.70
2019-05-16T01:44:28.840Z,0.68
2019-05-16T01:46:58.676Z,0.60
2019-05-16T01:49:28.308Z,0.88
2019-05-16T01:51:57.996Z,0.80
2019-05-16T01:54:28.295Z,0.50
2019-05-16T01:56:59.463Z,0.80
2019-05-16T01:59:29.264Z,0.75
2019-05-16T02:02:00.941Z,0.57
2019-05-16T02:04:30.028Z,0.70
2019-05-16T02:06:59.549Z,0.50
2019-05-16T02:09:29.077Z,0.70
2019-05-16T02:11:58.975Z,0.80
2019-05-16T02:14:28.713Z,0.80
2019-05-16T02:16:58.252Z,0.60
2019-05-16T02:19:28.042Z,0.60
2019-05-16T02:21:59.622Z,0.70
2019-05-16T02:24:29.324Z,1.00
2019-05-16T02:26:59.249Z,0.72
2019-05-16T02:29:29.879Z,0.90
2019-05-16T02:32:01.983Z,0.60
2019-05-16T02:34:30.978Z,0.80
2019-05-16T02:37:18.475Z,0.70
2019-05-16T02:39:31.814Z,0.70
2019-05-16T02:42:01.394Z,0.82
2019-05-16T02:44:31.954Z,0.75
2019-05-16T02:47:02.125Z,0.65
2019-05-16T02:49:34.175Z,0.70
2019-05-16T02:52:02.921Z,0.72
2019-05-16T02:54:32.460Z,0.80
2019-05-16T02:57:01.980Z,0.72
2019-05-16T02:59:31.535Z,0.72
2019-05-16T03:02:01.195Z,0.80
2019-05-16T03:04:30.900Z,0.70
2019-05-16T03:07:01.247Z,0.90
2019-05-16T03:09:31.031Z,0.65
2019-05-16T03:12:02.029Z,0.70
2019-05-16T03:14:31.772Z,0.80
2019-05-16T03:17:03.209Z,0.70
2019-05-16T03:19:35.441Z,0.80
2019-05-16T03:22:05.499Z,0.80
2019-05-16T03:24:35.025Z,0.80
2019-05-16T03:27:05.482Z,0.82
2019-05-16T03:29:35.028Z,0.82
2019-05-16T03:32:04.560Z,0.70
2019-05-16T03:34:34.946Z,0.70
2019-05-16T03:37:05.134Z,0.90
2019-05-16T03:39:34.930Z,0.80
2019-05-16T03:42:04.466Z,0.95
2019-05-16T03:44:33.987Z,0.62
2019-05-16T03:47:07.053Z,0.75
2019-05-16T03:49:36.579Z,0.70
2019-05-16T03:52:06.178Z,0.80
2019-05-16T03:54:35.693Z,0.82
2019-05-16T03:57:05.240Z,0.80
2019-05-16T03:59:34.829Z,0.70
2019-05-16T04:02:04.346Z,0.80
2019-05-16T04:04:33.876Z,0.60
2019-05-16T04:07:03.388Z,0.70
2019-05-16T04:09:32.905Z,0.80
2019-05-16T04:12:02.426Z,0.70
2019-05-16T04:14:31.951Z,0.80
2019-05-16T04:17:01.728Z,0.78
2019-05-16T04:19:31.637Z,0.70
2019-05-16T04:22:02.585Z,0.70
2019-05-16T04:24:32.095Z,0.80
2019-05-16T04:27:01.979Z,0.80
2019-05-16T04:29:32.264Z,0.70
2019-05-16T04:32:01.935Z,0.60
2019-05-16T04:34:31.490Z,0.50
2019-05-16T04:37:01.951Z,0.65
2019-05-16T04:39:32.090Z,0.72
2019-05-16T04:42:01.920Z,0.88
2019-05-16T04:44:32.602Z,0.70
2019-05-16T04:47:02.138Z,0.72
2019-05-16T04:49:32.190Z,0.70
2019-05-16T04:52:01.879Z,0.90
2019-05-16T04:54:31.448Z,0.70
2019-05-16T04:57:01.608Z,0.60
2019-05-16T04:59:31.489Z,0.70
2019-05-16T05:02:01.923Z,0.60
2019-05-16T05:04:32.120Z,0.60
2019-05-16T05:07:01.721Z,0.70
2019-05-16T05:09:32.206Z,0.70
2019-05-16T05:12:04.591Z,0.60
2019-05-16T05:14:32.974Z,0.65
2019-05-16T05:17:05.400Z,0.75
2019-05-16T05:19:33.733Z,0.98
2019-05-16T05:22:03.307Z,0.60
2019-05-16T05:24:32.832Z,0.70
2019-05-16T05:27:02.356Z,0.68
2019-05-16T05:29:31.879Z,1.30
2019-05-16T05:32:04.519Z,0.62
2019-05-16T05:34:32.649Z,0.62
2019-05-16T05:37:02.500Z,0.70
2019-05-16T05:39:33.005Z,0.80
2019-05-16T05:42:02.552Z,0.85
2019-05-16T05:44:32.097Z,0.70
2019-05-16T05:47:01.625Z,0.62
2019-05-16T05:49:31.233Z,0.70
2019-05-16T05:52:00.941Z,0.98
2019-05-16T05:54:30.950Z,0.90
2019-05-16T05:57:00.791Z,0.68
2019-05-16T05:59:30.758Z,0.80
2019-05-16T06:02:00.962Z,0.88
2019-05-16T06:04:30.694Z,0.80
2019-05-16T06:07:01.129Z,0.70
2019-05-16T06:09:33.037Z,0.65
2019-05-16T06:12:02.241Z,0.90
2019-05-16T06:14:31.781Z,0.75
2019-05-16T06:17:02.212Z,0.90
2019-05-16T06:19:31.745Z,0.90
2019-05-16T06:22:01.573Z,0.80
2019-05-16T06:24:31.357Z,0.80
2019-05-16T06:27:01.088Z,0.90
2019-05-16T06:29:31.104Z,0.90
2019-05-16T06:32:00.710Z,0.68
2019-05-16T06:34:30.360Z,1.10
2019-05-16T06:37:00.566Z,0.82
2019-05-16T06:39:41.119Z,0.90
2019-05-16T06:42:01.462Z,0.80
2019-05-16T06:44:31.084Z,0.72
2019-05-16T06:47:15.894Z,0.70
2019-05-16T06:49:33.845Z,1.12
2019-05-16T06:52:03.360Z,0.90
2019-05-16T06:54:32.914Z,1.00
2019-05-16T06:57:02.487Z,0.88
2019-05-16T06:59:32.015Z,1.10
2019-05-16T07:02:01.960Z,0.80
2019-05-16T07:04:31.502Z,1.10
2019-05-16T07:07:02.964Z,1.00
2019-05-16T07:09:33.169Z,0.88
2019-05-16T07:12:02.683Z,0.80
2019-05-16T07:14:32.217Z,0.85
2019-05-16T07:17:01.880Z,0.90
2019-05-16T07:19:32.079Z,1.17
2019-05-16T07:22:01.592Z,0.75
2019-05-16T07:24:31.102Z,0.98
2019-05-16T07:27:00.616Z,1.00
2019-05-16T07:29:30.840Z,1.00
2019-05-16T07:32:00.639Z,1.00
2019-05-16T07:34:31.124Z,0.88
2019-05-16T07:37:01.377Z,1.50
2019-05-16T07:39:30.908Z,1.47
2019-05-16T07:42:00.515Z,1.30
2019-05-16T07:44:30.992Z,0.95
2019-05-16T07:47:01.306Z,0.98
2019-05-16T07:49:31.569Z,1.00
2019-05-16T07:52:01.491Z,1.00
2019-05-16T07:54:34.561Z,1.30
2019-05-16T07:57:16.123Z,0.90
2019-05-16T07:59:33.488Z,1.10
2019-05-16T08:02:03.004Z,0.98
2019-05-16T08:04:32.574Z,1.00
2019-05-16T08:07:05.519Z,1.10
2019-05-16T08:09:33.477Z,1.10
2019-05-16T08:12:05.797Z,1.27
2019-05-16T08:14:35.178Z,1.22
2019-05-16T08:17:04.914Z,1.10
2019-05-16T08:19:34.461Z,1.10
2019-05-16T08:22:04.009Z,1.00
2019-05-16T08:24:36.209Z,0.95
2019-05-16T08:27:05.676Z,1.60
2019-05-16T08:29:35.212Z,0.78
2019-05-16T08:32:04.738Z,1.40
2019-05-16T08:34:34.270Z,1.12
2019-05-16T08:37:03.785Z,1.50
2019-05-16T08:39:33.313Z,1.25
2019-05-16T08:42:08.066Z,1.02
2019-05-16T08:44:34.062Z,1.62
2019-05-16T08:47:06.228Z,1.50
2019-05-16T08:49:35.090Z,1.30
2019-05-16T08:52:04.631Z,1.37
2019-05-16T08:54:34.206Z,1.80
2019-05-16T08:57:21.716Z,1.40
2019-05-16T08:59:35.259Z,1.57
2019-05-16T09:02:04.845Z,1.37
2019-05-16T09:04:34.587Z,1.60
2019-05-16T09:07:04.299Z,2.00
2019-05-16T09:09:42.142Z,2.00
2019-05-16T09:12:07.712Z,1.30
2019-05-16T09:14:38.949Z,1.60
2019-05-16T09:17:07.631Z,1.42
2019-05-16T09:19:37.477Z,1.47
2019-05-16T09:22:07.440Z,1.60
2019-05-16T09:24:37.812Z,1.60
2019-05-16T09:27:12.260Z,1.70
2019-05-16T09:29:38.870Z,1.60
2019-05-16T09:32:20.401Z,1.40
2019-05-16T09:34:39.643Z,1.47
2019-05-16T09:37:09.650Z,1.60
2019-05-16T09:39:39.168Z,1.57
2019-05-16T09:42:08.748Z,1.30
2019-05-16T09:44:41.709Z,1.70
2019-05-16T09:47:11.234Z,1.42
2019-05-16T09:49:40.772Z,1.37
2019-05-16T09:52:10.426Z,1.45
2019-05-16T09:54:39.940Z,1.67
2019-05-16T09:57:09.454Z,1.98
2019-05-16T09:59:46.536Z,1.57
2019-05-16T10:02:17.573Z,1.30
2019-05-16T10:04:47.596Z,1.30
2019-05-16T10:07:18.038Z,1.77
2019-05-16T10:09:50.319Z,1.40
2019-05-16T10:12:22.977Z,1.57
2019-05-16T10:14:52.540Z,1.80
2019-05-16T10:17:22.115Z,1.67
2019-05-16T10:19:52.123Z,1.82
2019-05-16T10:22:21.639Z,1.95
2019-05-16T10:24:51.189Z,2.00
2019-05-16T10:27:20.721Z,1.57
2019-05-16T10:29:50.254Z,2.42
2019-05-16T10:32:19.784Z,1.70
2019-05-16T10:34:49.325Z,1.90
2019-05-16T10:37:19.004Z,1.47
2019-05-16T10:39:48.547Z,2.00
2019-05-16T10:42:27.421Z,2.17
2019-05-16T10:44:49.282Z,2.85
2019-05-16T10:47:19.379Z,2.47
2019-05-16T10:49:48.897Z,2.62
2019-05-16T10:52:18.472Z,2.35
2019-05-16T10:54:57.461Z,2.22
2019-05-16T10:57:19.319Z,1.85
2019-05-16T11:00:04.656Z,2.40
2019-05-16T11:02:20.137Z,2.65
2019-05-16T11:05:00.094Z,1.95
2019-05-16T11:07:20.893Z,2.62
2019-05-16T11:09:58.287Z,2.37
2019-05-16T11:12:21.748Z,2.67
2019-05-16T11:14:51.388Z,2.45
2019-05-16T11:17:20.911Z,2.50
2019-05-16T11:19:50.454Z,1.80
2019-05-16T11:22:19.993Z,1.98
2019-05-16T11:24:49.540Z,2.20
2019-05-16T11:27:19.062Z,3.05
2019-05-16T11:29:48.603Z,2.05
2019-05-16T11:32:18.106Z,2.37
2019-05-16T11:34:48.066Z,2.52
2019-05-16T11:37:17.924Z,2.22
2019-05-16T11:39:49.370Z,1.60
2019-05-16T11:42:18.872Z,1.75
2019-05-16T11:44:48.381Z,1.65
2019-05-16T11:47:18.087Z,1.92
2019-05-16T11:49:47.798Z,2.00
2019-05-16T11:52:18.049Z,2.17
2019-05-16T11:54:47.832Z,2.05
2019-05-16T11:57:18.040Z,1.90
2019-05-16T11:59:47.718Z,2.08
2019-05-16T12:02:17.719Z,2.33
2019-05-16T12:04:47.467Z,3.12
2019-05-16T12:07:19.162Z,1.90
2019-05-16T12:09:55.281Z,2.02
2019-05-16T12:12:20.887Z,2.55
2019-05-16T12:14:50.795Z,1.92
2019-05-16T12:17:20.328Z,2.55
2019-05-16T12:19:52.719Z,1.87
2019-05-16T12:22:21.079Z,2.65
2019-05-16T12:24:50.599Z,3.12
2019-05-16T12:27:20.162Z,2.40
2019-05-16T12:29:54.715Z,2.85
2019-05-16T12:32:20.990Z,2.37
2019-05-16T12:34:50.533Z,1.80
2019-05-16T12:37:20.031Z,2.47
2019-05-16T12:39:49.588Z,2.37
2019-05-16T12:42:19.097Z,2.70
2019-05-16T12:44:48.617Z,2.27
2019-05-16T12:47:18.137Z,2.37
2019-05-16T12:49:47.690Z,2.33
2019-05-16T12:52:18.137Z,2.83
2019-05-16T12:54:47.698Z,2.85
2019-05-16T12:57:18.311Z,2.33
2019-05-16T12:59:50.077Z,2.80
2019-05-16T13:02:21.725Z,3.50
2019-05-16T13:04:50.416Z,2.77
2019-05-16T13:07:19.923Z,1.95
2019-05-16T13:09:50.378Z,3.77
2019-05-16T13:12:20.012Z,2.12
2019-05-16T13:14:50.214Z,1.77
2019-05-16T13:17:19.750Z,1.60
2019-05-16T13:19:49.260Z,2.90
2019-05-16T13:22:18.772Z,2.22
2019-05-16T13:24:48.317Z,2.00
2019-05-16T13:27:22.867Z,3.50
2019-05-16T13:29:49.072Z,2.65
2019-05-16T13:32:18.629Z,3.47
2019-05-16T13:34:48.178Z,2.95
2019-05-16T13:37:18.112Z,4.85
2019-05-16T13:39:47.878Z,4.83
2019-05-16T13:42:17.804Z,4.72
2019-05-16T13:44:47.348Z,4.75
2019-05-16T13:47:17.773Z,3.02
2019-05-16T13:49:47.296Z,4.30
2019-05-16T13:52:17.472Z,4.28
2019-05-16T13:54:46.993Z,3.77
2019-05-16T13:57:17.183Z,2.75
2019-05-16T13:59:47.200Z,5.55
2019-05-16T14:02:17.384Z,2.72
2019-05-16T14:04:47.104Z,5.90
2019-05-16T14:07:17.199Z,4.85
2019-05-16T14:09:47.602Z,6.40
2019-05-16T14:12:17.778Z,6.12
2019-05-16T14:14:47.836Z,3.85
2019-05-16T14:17:18.404Z,6.53
2019-05-16T14:19:48.238Z,3.15
2019-05-16T14:22:17.892Z,5.70
2019-05-16T14:24:48.194Z,5.45
2019-05-16T14:27:18.000Z,4.12
2019-05-16T14:29:47.784Z,4.10
2019-05-16T14:32:19.743Z,4.10
2019-05-16T14:34:51.536Z,3.70
2019-05-16T14:37:20.022Z,2.83
2019-05-16T14:39:49.543Z,4.70
2019-05-16T14:42:19.100Z,4.70
2019-05-16T14:45:03.599Z,4.28
2019-05-16T14:47:19.833Z,2.42
2019-05-16T14:49:49.373Z,4.20
2019-05-16T14:52:18.909Z,5.33
2019-05-16T14:54:48.429Z,5.20
2019-05-16T14:57:18.033Z,4.60
2019-05-16T14:59:47.542Z,3.77
2019-05-16T15:02:18.025Z,4.28
2019-05-16T15:04:49.512Z,4.92
2019-05-16T15:07:19.586Z,4.97
2019-05-16T15:09:49.197Z,4.85
2019-05-16T15:12:18.714Z,4.03
2019-05-16T15:14:48.233Z,2.95
2019-05-16T15:17:18.226Z,4.90
2019-05-16T15:19:47.746Z,5.58
2019-05-16T15:22:17.633Z,3.90
2019-05-16T15:24:47.152Z,3.42
2019-05-16T15:27:17.115Z,2.67
2019-05-16T15:29:50.578Z,4.17
2019-05-16T15:32:18.471Z,3.77
2019-05-16T15:34:48.049Z,4.87
2019-05-16T15:37:17.652Z,4.80
2019-05-16T15:39:47.715Z,6.20
2019-05-16T15:42:18.257Z,5.95
2019-05-16T15:44:47.969Z,4.92
2019-05-16T15:47:18.197Z,3.35
2019-05-16T15:49:47.898Z,3.65
2019-05-16T15:52:17.806Z,5.35
2019-05-16T15:54:47.329Z,3.50
2019-05-16T15:57:18.153Z,5.72
2019-05-16T15:59:47.667Z,4.50
2019-05-16T16:02:17.836Z,4.15
2019-05-16T16:04:47.846Z,7.72
2019-05-16T16:07:18.277Z,5.60
2019-05-16T16:09:47.950Z,6.30
2019-05-16T16:12:17.549Z,3.72
2019-05-16T16:14:47.086Z,5.08
2019-05-16T16:17:17.674Z,4.03
2019-05-16T16:19:47.348Z,5.20
2019-05-16T16:22:17.869Z,4.03
2019-05-16T16:24:47.880Z,5.87
2019-05-16T16:27:17.629Z,5.83
2019-05-16T16:29:48.084Z,3.98
2019-05-16T16:32:17.752Z,4.60
2019-05-16T16:34:49.011Z,6.90
2019-05-16T16:37:18.516Z,3.75
2019-05-16T16:39:48.038Z,4.25
2019-05-16T16:42:17.748Z,5.80
2019-05-16T16:44:47.348Z,5.97
2019-05-16T16:47:17.977Z,5.60
2019-05-16T16:49:47.520Z,5.25
2019-05-16T16:52:18.080Z,6.97
2019-05-16T16:54:47.766Z,6.55
2019-05-16T16:57:17.882Z,3.98
2019-05-16T16:59:47.785Z,5.58
2019-05-16T17:02:17.749Z,3.10
2019-05-16T17:04:50.902Z,6.15
2019-05-16T17:07:18.537Z,8.00
2019-05-16T17:09:48.057Z,6.28
2019-05-16T17:12:17.593Z,7.47
2019-05-16T17:14:47.104Z,8.73
2019-05-16T17:17:17.555Z,5.28
2019-05-16T17:19:47.526Z,6.15
2019-05-16T17:22:20.784Z,7.42
2019-05-16T17:24:49.325Z,5.75
2019-05-16T17:27:18.840Z,3.47
2019-05-16T17:29:48.359Z,8.18
2019-05-16T17:32:17.868Z,7.45
2019-05-16T17:34:47.418Z,5.10
2019-05-16T17:37:17.594Z,3.27
2019-05-16T17:39:47.568Z,7.08
2019-05-16T17:42:17.538Z,3.42
2019-05-16T17:44:47.381Z,8.20
2019-05-16T17:47:18.186Z,6.92
2019-05-16T17:49:47.697Z,8.35
2019-05-16T17:52:17.477Z,7.37
2019-05-16T17:54:47.046Z,8.60
2019-05-16T17:57:17.185Z,9.58
2019-05-16T17:59:47.971Z,9.58
2019-05-16T18:02:17.722Z,9.10
2019-05-16T18:04:47.299Z,7.30
2019-05-16T18:07:17.212Z,6.83
2019-05-16T18:09:48.485Z,10.13
2019-05-16T18:12:18.235Z,5.30
2019-05-16T18:14:50.369Z,6.20
2019-05-16T18:17:18.986Z,5.90
2019-05-16T18:19:48.505Z,7.30
2019-05-16T18:22:18.047Z,5.00
2019-05-16T18:24:47.594Z,8.65
2019-05-16T18:27:18.637Z,8.50
2019-05-16T18:29:48.180Z,7.05
2019-05-16T18:32:18.697Z,7.35
2019-05-16T18:34:48.271Z,7.42
2019-05-16T18:37:18.573Z,5.12
2019-05-16T18:39:49.341Z,13.05
2019-05-16T18:42:18.942Z,4.45
2019-05-16T18:44:48.486Z,7.28
2019-05-16T18:47:17.994Z,6.53
2019-05-16T18:49:47.518Z,6.80
2019-05-16T18:52:17.354Z,6.25
2019-05-16T18:54:47.121Z,8.43
2019-05-16T18:57:17.576Z,4.58
2019-05-16T18:59:47.252Z,4.22
2019-05-16T19:02:17.982Z,5.83
2019-05-16T19:04:50.102Z,3.98
2019-05-16T19:07:18.805Z,5.15
2019-05-16T19:09:48.328Z,9.20
2019-05-16T19:12:17.877Z,6.95
2019-05-16T19:14:47.421Z,5.80
2019-05-16T19:17:22.191Z,5.80
2019-05-16T19:19:48.263Z,9.70
2019-05-16T19:22:17.773Z,4.92
2019-05-16T19:24:47.290Z,6.50
2019-05-16T19:27:17.255Z,7.42
2019-05-16T19:29:47.105Z,10.00
2019-05-16T19:32:17.233Z,13.20
2019-05-16T19:34:49.251Z,7.78
2019-05-16T19:37:18.865Z,4.67
2019-05-16T19:39:48.389Z,7.08
2019-05-16T19:42:17.927Z,10.18
2019-05-16T19:44:47.458Z,9.18
2019-05-16T19:47:16.979Z,7.25
2019-05-16T19:49:47.183Z,11.97
2019-05-16T19:52:16.725Z,5.75
2019-05-16T19:54:47.152Z,8.30
2019-05-16T19:57:17.445Z,7.25
2019-05-16T19:59:47.441Z,12.50
2019-05-16T20:02:16.987Z,11.48
2019-05-16T20:04:47.115Z,8.58
2019-05-16T20:07:16.909Z,10.68
2019-05-16T20:09:47.137Z,7.15
2019-05-16T20:12:16.984Z,7.87
2019-05-16T20:14:47.246Z,12.65
2019-05-16T20:17:19.189Z,5.50
2019-05-16T20:19:48.176Z,6.35
2019-05-16T20:22:17.722Z,14.90
2019-05-16T20:24:47.265Z,13.65
2019-05-16T20:27:19.564Z,12.95
2019-05-16T20:29:48.050Z,10.78
2019-05-16T20:32:17.580Z,16.75
2019-05-16T20:34:47.138Z,10.68
2019-05-16T20:37:17.378Z,8.03
2019-05-16T20:39:47.249Z,13.58
2019-05-16T20:42:17.195Z,11.33
2019-05-16T20:44:49.791Z,11.20
2019-05-16T20:47:18.936Z,13.85
2019-05-16T20:49:50.633Z,8.78
2019-05-16T20:52:19.775Z,14.33
2019-05-16T20:54:49.849Z,14.83
2019-05-16T20:57:19.615Z,11.18
2019-05-16T20:59:49.312Z,14.75
2019-05-16T21:02:18.887Z,9.15
2019-05-16T21:04:48.415Z,14.68
2019-05-16T21:07:18.437Z,13.62
2019-05-16T21:09:47.981Z,11.45
2019-05-16T21:12:17.516Z,12.18
2019-05-16T21:14:47.051Z,10.93
2019-05-16T21:17:17.435Z,11.03
2019-05-16T21:19:48.279Z,10.50
2019-05-16T21:22:19.397Z,15.15
2019-05-16T21:24:49.058Z,7.33
2019-05-16T21:27:19.028Z,9.93
2019-05-16T21:29:48.865Z,12.23
2019-05-16T21:32:18.398Z,14.33
2019-05-16T21:34:47.942Z,12.30
2019-05-16T21:37:20.320Z,15.48
2019-05-16T21:39:48.711Z,15.63
2019-05-16T21:42:18.257Z,17.20
2019-05-16T21:44:47.793Z,13.72
2019-05-16T21:47:19.602Z,15.63
2019-05-16T21:49:48.619Z,14.35
2019-05-16T21:52:18.148Z,9.35
2019-05-16T21:54:47.700Z,18.62
2019-05-16T21:57:19.713Z,9.70
2019-05-16T21:59:48.533Z,15.53
2019-05-16T22:02:18.056Z,18.10
2019-05-16T22:04:47.612Z,16.62
2019-05-16T22:07:17.132Z,13.28
2019-05-16T22:09:47.541Z,17.70
2019-05-16T22:12:17.451Z,15.45
2019-05-16T22:14:51.169Z,17.55
2019-05-16T22:17:20.715Z,11.93
2019-05-16T22:19:50.282Z,16.23
2019-05-16T22:22:19.813Z,12.98
2019-05-16T22:24:49.478Z,10.05
2019-05-16T22:27:19.046Z,8.90
2019-05-16T22:29:48.581Z,9.33
2019-05-16T22:32:19.809Z,11.88
2019-05-16T22:34:49.357Z,7.62
2019-05-16T22:37:18.911Z,15.95
2019-05-16T22:39:49.666Z,7.78
2019-05-16T22:42:19.222Z,8.90
2019-05-16T22:44:48.743Z,12.55
2019-05-16T22:47:18.309Z,11.05
2019-05-16T22:49:47.853Z,8.78
2019-05-16T22:52:17.437Z,11.40
2019-05-16T22:54:47.593Z,10.50
2019-05-16T22:57:17.775Z,10.05
2019-05-16T22:59:47.441Z,11.80
2019-05-16T23:02:17.036Z,13.70
2019-05-16T23:04:47.606Z,11.57
2019-05-16T23:07:17.412Z,9.23
2019-05-16T23:09:47.322Z,11.48
2019-05-16T23:12:17.391Z,7.65
2019-05-16T23:14:47.397Z,11.68
2019-05-16T23:17:17.396Z,11.08
2019-05-16T23:19:47.563Z,9.55
2019-05-16T23:22:17.235Z,11.85
2019-05-16T23:24:46.769Z,10.38
2019-05-16T23:27:16.305Z,9.33
2019-05-16T23:29:47.390Z,8.75
2019-05-16T23:32:17.105Z,7.72
2019-05-16T23:34:46.696Z,12.50
2019-05-16T23:37:16.253Z,8.65
2019-05-16T23:39:47.499Z,9.85
2019-05-16T23:42:17.169Z,9.03
2019-05-16T23:44:47.386Z,8.60
2019-05-16T23:47:17.112Z,14.33
2019-05-16T23:49:47.432Z,13.75
2019-05-16T23:52:17.124Z,13.88
2019-05-16T23:54:47.538Z,9.43
2019-05-16T23:57:17.280Z,9.93
2019-05-16T23:59:47.385Z,14.30
